Time;durP1;ratioP1;P1;durP2;ratioP2;P2;SDS_P1;SDS_P2;PMS_P1;PMS_P2;Temp;Humidity;BMP_temperature;BMP_pressure;BME280_temperature;BME280_humidity;BME280_pressure;Samples;Min_cycle;Max_cycle;Signal;HPM_P1;HPM_P2
2021/12/18 00:00:30;;;;;;;8.32;2.70;;;7.60;99.90;;;;;;5092211;28;20032;-70
2021/12/18 00:02:56;;;;;;;6.93;2.90;;;7.60;99.90;;;;;;5095444;28;20438;-69
2021/12/18 00:05:22;;;;;;;7.35;2.55;;;7.60;99.90;;;;;;5111805;28;20028;-69
2021/12/18 00:07:48;;;;;;;5.47;2.05;;;7.60;99.90;;;;;;5109841;28;20035;-70
2021/12/18 00:10:13;;;;;;;4.93;2.00;;;7.50;99.90;;;;;;5110195;28;20499;-70
2021/12/18 00:12:47;;;;;;;6.55;2.28;;;7.50;99.90;;;;;;5110720;28;20098;-70
2021/12/18 00:15:13;;;;;;;6.30;2.40;;;7.50;99.90;;;;;;5110402;28;20038;-70
2021/12/18 00:17:39;;;;;;;7.63;2.35;;;7.50;99.90;;;;;;5112560;28;20054;-70
2021/12/18 00:20:05;;;;;;;5.43;2.35;;;7.60;99.90;;;;;;5094354;28;20032;-70
2021/12/18 00:22:31;;;;;;;6.90;2.25;;;7.60;99.90;;;;;;5095374;28;20034;-70
2021/12/18 00:24:56;;;;;;;6.30;2.60;;;7.60;99.90;;;;;;5090764;28;20115;-70
2021/12/18 00:27:22;;;;;;;6.93;2.20;;;7.60;99.90;;;;;;5094110;28;20370;-70
2021/12/18 00:29:47;;;;;;;5.38;2.10;;;7.60;99.90;;;;;;5093975;28;20035;-70
2021/12/18 00:32:13;;;;;;;4.75;1.83;;;7.60;99.90;;;;;;5094283;28;20050;-70
2021/12/18 00:34:39;;;;;;;6.82;2.05;;;7.60;99.90;;;;;;5110328;28;20130;-69
2021/12/18 00:37:05;;;;;;;5.38;2.20;;;7.60;99.90;;;;;;5111892;28;20399;-70
2021/12/18 00:39:32;;;;;;;6.22;2.85;;;7.60;99.90;;;;;;5094245;28;20043;-70
2021/12/18 00:42:19;;;;;;;5.60;1.80;;;7.50;99.90;;;;;;5093615;28;20080;-70
2021/12/18 00:44:44;;;;;;;3.78;1.45;;;7.50;99.90;;;;;;5092872;28;20074;-70
2021/12/18 00:47:10;;;;;;;3.42;1.40;;;7.50;99.90;;;;;;5146231;27;20059;-70
2021/12/18 00:49:36;;;;;;;3.60;1.33;;;7.50;99.90;;;;;;5095161;28;20039;-70
2021/12/18 00:52:01;;;;;;;6.38;1.52;;;7.50;99.90;;;;;;5093967;28;20038;-70
2021/12/18 00:54:27;;;;;;;4.60;1.30;;;7.40;99.90;;;;;;5094531;28;20042;-70
2021/12/18 00:56:53;;;;;;;3.20;1.45;;;7.50;99.90;;;;;;5110645;28;20035;-70
2021/12/18 00:59:18;;;;;;;4.75;1.45;;;7.50;99.90;;;;;;5094569;28;20039;-69
2021/12/18 01:01:46;;;;;;;4.28;1.60;;;7.50;99.90;;;;;;5109955;28;20122;-70
2021/12/18 01:04:12;;;;;;;4.53;1.50;;;7.50;99.90;;;;;;5111533;28;20028;-70
2021/12/18 01:06:37;;;;;;;3.40;1.20;;;7.40;99.90;;;;;;5092341;28;20076;-70
2021/12/18 01:09:04;;;;;;;4.07;1.30;;;7.40;99.90;;;;;;5094056;28;20077;-70
2021/12/18 01:16:51;;;;;;;3.97;1.48;;;7.50;99.90;;;;;;5113264;28;20077;-69
2021/12/18 01:24:30;;;;;;;4.10;1.40;;;7.60;99.90;;;;;;5112764;28;20047;-70
2021/12/18 01:26:55;;;;;;;5.60;1.80;;;7.70;99.90;;;;;;5098031;28;20028;-69
2021/12/18 01:29:21;;;;;;;4.43;1.70;;;7.80;99.90;;;;;;5097529;28;20481;-70
2021/12/18 01:31:46;;;;;;;5.65;2.05;;;7.80;99.90;;;;;;5098897;28;20080;-70
2021/12/18 01:34:12;;;;;;;5.53;1.92;;;7.60;99.90;;;;;;5097586;28;20074;-70
2021/12/18 01:36:37;;;;;;;4.65;1.38;;;7.50;99.90;;;;;;5114282;28;20525;-69
2021/12/18 01:39:04;;;;;;;5.68;1.95;;;7.40;99.90;;;;;;5114498;28;20079;-70
2021/12/18 01:41:38;;;;;;;4.75;1.90;;;7.40;99.90;;;;;;5098189;28;20076;-69
2021/12/18 01:52:16;;;;;;;5.72;1.80;;;7.40;99.90;;;;;;5081632;28;20036;-69
2021/12/18 01:54:44;;;;;;;4.85;1.63;;;7.40;99.90;;;;;;5114595;28;20055;-70
2021/12/18 01:57:10;;;;;;;5.20;1.77;;;7.50;99.90;;;;;;5114481;28;20043;-70
2021/12/18 01:59:43;;;;;;;4.13;1.35;;;7.50;99.90;;;;;;5098139;28;20027;-69
2021/12/18 02:02:09;;;;;;;5.97;2.05;;;7.40;99.90;;;;;;5097109;28;20126;-70
2021/12/18 02:04:35;;;;;;;7.80;2.08;;;7.40;99.90;;;;;;5114729;28;20078;-70
2021/12/18 02:07:03;;;;;;;7.70;2.40;;;7.40;99.90;;;;;;5109274;28;20039;-69
2021/12/18 02:09:46;;;;;;;7.15;1.98;;;7.30;99.90;;;;;;5114652;28;20108;-69
2021/12/18 02:12:14;;;;;;;6.93;1.80;;;7.40;99.90;;;;;;5112626;28;20047;-70
2021/12/18 02:23:03;;;;;;;4.18;1.40;;;7.30;99.90;;;;;;5113063;28;20035;-69
2021/12/18 02:25:31;;;;;;;4.47;1.52;;;7.20;99.90;;;;;;5094297;28;20430;-70
2021/12/18 02:27:58;;;;;;;6.18;1.60;;;7.20;99.90;;;;;;5113115;28;20031;-69
2021/12/18 02:30:24;;;;;;;4.20;1.30;;;7.20;99.90;;;;;;5113831;28;20035;-69
2021/12/18 02:32:50;;;;;;;3.90;1.30;;;7.20;99.90;;;;;;5114440;28;20040;-70
2021/12/18 02:35:51;;;;;;;5.50;1.40;;;7.20;99.90;;;;;;5108814;28;20061;-70
2021/12/18 02:41:33;;;;;;;4.82;1.55;;;7.20;99.90;;;;;;5114151;28;20098;-69
2021/12/18 02:44:05;;;;;;;5.15;1.52;;;7.20;99.90;;;;;;5096796;28;20407;-69
2021/12/18 02:46:31;;;;;;;4.82;1.38;;;7.20;99.90;;;;;;5094415;28;20077;-70
2021/12/18 02:49:03;;;;;;;4.53;1.55;;;7.20;99.90;;;;;;5112444;28;20484;-70
2021/12/18 02:51:29;;;;;;;5.00;1.48;;;7.20;99.90;;;;;;5097218;28;20391;-70
2021/12/18 02:53:55;;;;;;;4.10;1.77;;;7.20;99.90;;;;;;5094846;28;20042;-70
2021/12/18 02:56:23;;;;;;;4.53;1.40;;;7.20;99.90;;;;;;5094770;28;20032;-70
2021/12/18 02:58:53;;;;;;;4.70;1.45;;;7.30;99.90;;;;;;5095689;28;20089;-69
2021/12/18 03:01:22;;;;;;;4.25;1.42;;;7.20;99.90;;;;;;5096758;28;20042;-70
2021/12/18 03:03:50;;;;;;;4.95;1.50;;;7.30;99.90;;;;;;5095364;28;20028;-69
2021/12/18 03:06:34;;;;;;;5.10;1.90;;;7.30;99.90;;;;;;5095189;28;20036;-70
2021/12/18 03:25:03;;;;;;;4.57;1.40;;;7.20;99.90;;;;;;5113229;28;20127;-70
2021/12/18 03:27:30;;;;;;;5.78;2.10;;;7.20;99.90;;;;;;5111969;28;20062;-70
2021/12/18 03:29:56;;;;;;;4.95;1.75;;;7.20;99.90;;;;;;5096228;28;20114;-70
2021/12/18 03:32:23;;;;;;;6.28;2.00;;;7.20;99.90;;;;;;5111518;28;20550;-69
2021/12/18 03:34:50;;;;;;;5.60;1.90;;;7.20;99.90;;;;;;5096063;28;20043;-69
2021/12/18 03:37:16;;;;;;;5.35;1.70;;;7.20;99.90;;;;;;5090922;28;20052;-70
2021/12/18 03:39:42;;;;;;;6.22;1.92;;;7.20;99.90;;;;;;5112954;28;20042;-69
2021/12/18 03:42:08;;;;;;;4.95;1.55;;;7.20;99.90;;;;;;5095137;28;20038;-70
2021/12/18 03:44:34;;;;;;;4.65;1.92;;;7.20;99.90;;;;;;5112974;28;20484;-70
2021/12/18 03:47:00;;;;;;;5.03;1.60;;;7.20;99.90;;;;;;5093574;28;20032;-69
2021/12/18 03:49:26;;;;;;;6.97;2.08;;;7.20;99.90;;;;;;5112625;28;20047;-69
2021/12/18 03:51:52;;;;;;;7.20;2.03;;;7.20;99.90;;;;;;5112741;28;20031;-70
2021/12/18 03:54:17;;;;;;;5.25;1.60;;;7.20;99.90;;;;;;5111249;28;20046;-69
2021/12/18 03:56:43;;;;;;;4.57;1.50;;;7.30;99.90;;;;;;5112813;28;20118;-70
2021/12/18 03:59:09;;;;;;;7.22;1.80;;;7.20;99.90;;;;;;5094714;28;20071;-69
2021/12/18 04:01:34;;;;;;;4.82;1.42;;;7.20;99.90;;;;;;5109481;28;20039;-70
2021/12/18 04:04:00;;;;;;;5.57;1.90;;;7.20;99.90;;;;;;5095974;28;20527;-70
2021/12/18 04:06:26;;;;;;;4.82;1.70;;;7.20;99.90;;;;;;5108874;28;20849;-70
2021/12/18 04:08:51;;;;;;;5.57;1.95;;;7.20;99.90;;;;;;5093723;28;20468;-70
2021/12/18 04:11:17;;;;;;;7.38;1.92;;;7.20;99.90;;;;;;5111518;28;20040;-70
2021/12/18 04:13:45;;;;;;;6.13;1.60;;;7.20;99.90;;;;;;5145576;27;20484;-70
2021/12/18 04:16:12;;;;;;;7.00;1.92;;;7.30;99.90;;;;;;5111900;28;20039;-70
2021/12/18 04:18:39;;;;;;;8.35;2.75;;;7.30;99.90;;;;;;5124476;27;20035;-70
2021/12/18 04:21:04;;;;;;;7.93;2.35;;;7.20;99.90;;;;;;5112202;28;20044;-70
2021/12/18 04:23:30;;;;;;;7.25;2.33;;;7.20;99.90;;;;;;5094316;28;20032;-70
2021/12/18 04:25:56;;;;;;;7.57;2.22;;;7.20;99.90;;;;;;5095219;28;20028;-69
2021/12/18 04:28:22;;;;;;;6.10;1.65;;;7.20;99.90;;;;;;5091449;28;20042;-69
2021/12/18 04:30:48;;;;;;;6.63;1.92;;;7.20;99.90;;;;;;5108447;28;20134;-70
2021/12/18 04:33:14;;;;;;;4.95;1.58;;;7.20;99.90;;;;;;5109032;28;20126;-70
2021/12/18 04:35:40;;;;;;;5.43;1.80;;;7.20;99.90;;;;;;5112050;28;20048;-69
2021/12/18 04:38:05;;;;;;;4.65;1.50;;;7.20;99.90;;;;;;5094353;28;20387;-69
2021/12/18 04:40:31;;;;;;;4.35;1.50;;;7.20;99.90;;;;;;5094980;28;20042;-70
2021/12/18 04:42:57;;;;;;;5.88;1.90;;;7.20;99.90;;;;;;5093118;28;20032;-70
2021/12/18 04:45:23;;;;;;;3.90;1.10;;;7.20;99.90;;;;;;5140991;27;20044;-69
2021/12/18 04:47:50;;;;;;;4.38;1.40;;;7.20;99.90;;;;;;5112039;28;20054;-70
2021/12/18 04:50:15;;;;;;;4.22;1.50;;;7.20;99.90;;;;;;5089142;28;20043;-70
2021/12/18 04:52:41;;;;;;;5.07;1.60;;;7.30;99.90;;;;;;5112162;28;20532;-70
2021/12/18 04:55:07;;;;;;;3.90;1.35;;;7.30;99.90;;;;;;5094199;28;20563;-69
2021/12/18 04:57:32;;;;;;;6.32;1.58;;;7.20;99.90;;;;;;5094848;28;20083;-70
2021/12/18 04:59:58;;;;;;;5.00;1.42;;;7.20;99.90;;;;;;5093937;28;20088;-69
2021/12/18 05:02:35;;;;;;;5.28;1.65;;;7.40;99.90;;;;;;5111781;28;20102;-70
2021/12/18 05:05:00;;;;;;;4.63;1.40;;;7.30;99.90;;;;;;5107922;28;20483;-70
2021/12/18 05:07:27;;;;;;;5.03;1.50;;;7.40;99.90;;;;;;5094626;28;20038;-70
2021/12/18 05:09:53;;;;;;;4.43;1.20;;;7.30;99.90;;;;;;5109258;28;20047;-69
2021/12/18 05:12:18;;;;;;;4.03;1.30;;;7.30;99.90;;;;;;5111690;28;20051;-70
2021/12/18 05:14:44;;;;;;;4.18;1.27;;;7.30;99.90;;;;;;5108906;28;20035;-69
2021/12/18 05:17:09;;;;;;;3.88;1.48;;;7.30;99.90;;;;;;5094666;28;20040;-69
2021/12/18 05:19:35;;;;;;;4.10;1.30;;;7.20;99.90;;;;;;5109919;28;20040;-69
2021/12/18 05:22:01;;;;;;;4.30;1.25;;;7.20;99.90;;;;;;5111520;28;20035;-70
2021/12/18 05:24:27;;;;;;;6.55;1.77;;;7.20;99.90;;;;;;5109115;28;20042;-70
2021/12/18 05:26:52;;;;;;;4.07;1.30;;;7.20;99.90;;;;;;5111427;28;20467;-70
2021/12/18 05:29:18;;;;;;;4.43;1.42;;;7.30;99.90;;;;;;5093703;28;20046;-69
2021/12/18 05:31:45;;;;;;;4.38;1.50;;;7.20;99.90;;;;;;5110509;28;20032;-69
2021/12/18 05:34:11;;;;;;;4.50;1.50;;;7.30;99.90;;;;;;5108943;28;20035;-70
2021/12/18 05:37:11;;;;;;;4.50;1.38;;;7.30;99.90;;;;;;5105550;28;20143;-70
2021/12/18 05:39:29;;;;;;;3.95;1.40;;;7.20;99.90;;;;;;5098304;28;20040;-70
2021/12/18 05:41:56;;;;;;;4.75;1.50;;;7.30;99.90;;;;;;5089492;28;20487;-70
2021/12/18 05:44:24;;;;;;;5.82;1.98;;;7.20;99.90;;;;;;5111163;28;20035;-70
2021/12/18 05:46:51;;;;;;;4.82;1.58;;;7.30;99.90;;;;;;5093298;28;20036;-70
2021/12/18 05:49:17;;;;;;;5.97;1.60;;;7.20;99.90;;;;;;5094266;28;20492;-70
2021/12/18 05:51:43;;;;;;;4.93;1.60;;;7.20;99.90;;;;;;5094297;28;20028;-70
2021/12/18 05:54:10;;;;;;;5.88;1.48;;;7.20;99.90;;;;;;5105968;28;20036;-70
2021/12/18 05:56:36;;;;;;;6.05;1.60;;;7.30;99.90;;;;;;5111774;28;20080;-70
2021/12/18 05:59:03;;;;;;;5.47;1.73;;;7.30;99.90;;;;;;5095981;28;20031;-69
2021/12/18 06:01:29;;;;;;;3.95;1.55;;;7.30;99.90;;;;;;5110267;28;20114;-70
2021/12/18 06:03:55;;;;;;;5.65;1.85;;;7.40;99.90;;;;;;5109450;28;20032;-69
2021/12/18 06:06:21;;;;;;;7.43;2.28;;;7.30;99.90;;;;;;5113694;27;20166;-70
2021/12/18 06:08:47;;;;;;;6.28;1.65;;;7.30;99.90;;;;;;5093090;28;20027;-70
2021/12/18 06:11:16;;;;;;;5.95;1.98;;;7.30;99.90;;;;;;5096654;28;20389;-70
2021/12/18 06:13:45;;;;;;;4.80;1.63;;;7.20;99.90;;;;;;5112082;28;20506;-70
2021/12/18 06:16:12;;;;;;;5.80;1.95;;;7.20;99.90;;;;;;5091746;28;20483;-70
2021/12/18 06:18:47;;;;;;;7.53;2.17;;;7.30;99.90;;;;;;5096911;28;20036;-69
2021/12/18 06:21:14;;;;;;;3.70;1.50;;;7.20;99.90;;;;;;5109031;28;20549;-70
2021/12/18 06:23:44;;;;;;;8.07;2.33;;;7.20;99.90;;;;;;5110742;28;20028;-69
2021/12/18 06:26:10;;;;;;;5.07;1.95;;;7.20;99.90;;;;;;5107665;28;20028;-69
2021/12/18 06:28:36;;;;;;;5.90;1.92;;;7.30;99.90;;;;;;5105408;28;20137;-70
2021/12/18 06:31:02;;;;;;;7.05;2.22;;;7.30;99.90;;;;;;5092154;28;20055;-69
2021/12/18 06:33:28;;;;;;;6.20;2.10;;;7.40;99.90;;;;;;5108582;28;20097;-69
2021/12/18 06:35:55;;;;;;;4.85;1.70;;;7.30;99.90;;;;;;5092078;28;20048;-70
2021/12/18 06:38:20;;;;;;;6.20;2.30;;;7.30;99.90;;;;;;5099926;28;20047;-69
2021/12/18 06:40:46;;;;;;;8.18;2.38;;;7.30;99.90;;;;;;5094640;28;20031;-69
2021/12/18 06:43:11;;;;;;;7.05;2.67;;;7.40;99.90;;;;;;5093280;28;20063;-69
2021/12/18 06:45:38;;;;;;;6.25;2.55;;;7.30;99.90;;;;;;5114117;28;20404;-69
2021/12/18 06:48:04;;;;;;;6.55;2.30;;;7.40;99.90;;;;;;5110713;28;20046;-70
2021/12/18 06:50:29;;;;;;;6.93;2.33;;;7.40;99.90;;;;;;5114034;28;20039;-70
2021/12/18 06:52:55;;;;;;;7.30;2.60;;;7.40;99.90;;;;;;5110804;28;20404;-70
2021/12/18 06:55:21;;;;;;;6.82;2.10;;;7.50;99.90;;;;;;5096905;28;20130;-70
2021/12/18 06:57:47;;;;;;;6.72;2.60;;;7.50;99.90;;;;;;5112887;28;20039;-70
2021/12/18 07:00:14;;;;;;;6.40;2.35;;;7.40;99.90;;;;;;5096659;28;20050;-70
2021/12/18 07:02:41;;;;;;;6.68;2.30;;;7.50;99.90;;;;;;5112959;28;20032;-70
2021/12/18 07:05:07;;;;;;;7.38;2.42;;;7.40;99.90;;;;;;5113901;28;20104;-70
2021/12/18 07:07:33;;;;;;;8.38;2.65;;;7.50;99.90;;;;;;5089020;28;20116;-70
2021/12/18 07:09:59;;;;;;;7.68;2.95;;;7.50;99.90;;;;;;5110197;28;20059;-70
2021/12/18 07:12:24;;;;;;;10.63;3.03;;;7.40;99.90;;;;;;5112513;28;20081;-70
2021/12/18 07:14:50;;;;;;;6.43;2.60;;;7.50;99.90;;;;;;5110287;28;20036;-70
2021/12/18 07:17:15;;;;;;;10.10;3.38;;;7.50;99.90;;;;;;5088514;28;20043;-69
2021/12/18 07:19:41;;;;;;;10.13;3.60;;;7.50;99.90;;;;;;5093411;28;20096;-70
2021/12/18 07:22:06;;;;;;;11.88;4.43;;;7.50;99.90;;;;;;5109964;28;20036;-70
2021/12/18 07:24:32;;;;;;;10.38;3.92;;;7.50;99.90;;;;;;5113417;28;20031;-71
2021/12/18 07:26:58;;;;;;;9.52;3.85;;;7.50;99.90;;;;;;5112425;28;20036;-70
2021/12/18 07:29:24;;;;;;;12.07;4.35;;;7.60;99.90;;;;;;5096566;28;20407;-70
2021/12/18 07:31:52;;;;;;;12.93;4.20;;;7.60;99.90;;;;;;5095335;28;20066;-70
2021/12/18 07:34:18;;;;;;;11.98;4.53;;;7.60;99.90;;;;;;5110607;28;20062;-70
2021/12/18 07:36:44;;;;;;;12.68;4.53;;;7.60;99.90;;;;;;5112920;28;20445;-71
2021/12/18 07:39:11;;;;;;;9.63;4.20;;;7.60;99.90;;;;;;5107391;28;20048;-70
2021/12/18 07:41:36;;;;;;;10.98;4.20;;;7.60;99.90;;;;;;5096302;28;20043;-70
2021/12/18 07:44:03;;;;;;;11.30;4.38;;;7.60;99.90;;;;;;5095146;28;20046;-70
2021/12/18 07:46:29;;;;;;;10.48;4.18;;;7.60;99.90;;;;;;5112914;28;20055;-70
2021/12/18 07:48:55;;;;;;;11.25;4.10;;;7.60;99.90;;;;;;5095189;28;20049;-70
2021/12/18 07:51:20;;;;;;;9.27;3.95;;;7.70;99.90;;;;;;5096044;28;20043;-70
2021/12/18 07:53:46;;;;;;;11.02;3.67;;;7.70;99.90;;;;;;5110803;28;20032;-70
2021/12/18 07:56:12;;;;;;;11.98;3.60;;;7.80;99.90;;;;;;5113069;28;20039;-70
2021/12/18 07:58:39;;;;;;;11.57;3.50;;;7.80;99.90;;;;;;5094943;28;20042;-70
2021/12/18 08:01:05;;;;;;;10.95;3.35;;;7.80;99.90;;;;;;5095642;28;20176;-70
2021/12/18 08:03:30;;;;;;;11.18;3.70;;;7.80;99.90;;;;;;5092191;28;20532;-70
2021/12/18 08:05:56;;;;;;;11.70;3.28;;;7.90;99.90;;;;;;5095640;28;20399;-71
2021/12/18 08:08:21;;;;;;;9.75;2.92;;;7.90;99.90;;;;;;5092278;28;20035;-70
2021/12/18 08:10:47;;;;;;;11.85;3.30;;;7.90;99.90;;;;;;5110236;28;20046;-71
2021/12/18 08:13:13;;;;;;;10.65;3.25;;;7.90;99.90;;;;;;5111641;28;20039;-70
2021/12/18 08:15:39;;;;;;;9.48;3.05;;;7.90;99.90;;;;;;5112211;28;20036;-71
2021/12/18 08:18:07;;;;;;;9.90;3.15;;;8.00;99.90;;;;;;5094471;28;20050;-70
2021/12/18 08:20:34;;;;;;;10.90;3.90;;;7.90;99.90;;;;;;5112155;28;20044;-70
2021/12/18 08:23:01;;;;;;;8.75;3.40;;;8.00;99.90;;;;;;5092175;28;20066;-70
2021/12/18 08:25:28;;;;;;;10.05;3.38;;;8.00;99.90;;;;;;5092514;28;20039;-70
2021/12/18 08:27:59;;;;;;;10.63;3.33;;;8.00;99.90;;;;;;5112412;28;20479;-71
2021/12/18 08:30:26;;;;;;;9.45;3.10;;;8.10;99.90;;;;;;5110173;28;20496;-70
2021/12/18 08:32:51;;;;;;;10.25;2.92;;;8.10;99.90;;;;;;5093396;28;20035;-70
2021/12/18 08:35:17;;;;;;;7.47;2.70;;;8.10;99.90;;;;;;5094995;28;21147;-71
2021/12/18 08:37:43;;;;;;;8.30;2.60;;;8.20;99.90;;;;;;5093126;28;20036;-70
2021/12/18 08:40:09;;;;;;;8.73;2.40;;;8.20;99.90;;;;;;5094948;28;20047;-70
2021/12/18 08:42:35;;;;;;;9.35;2.17;;;8.20;99.90;;;;;;5109894;28;20369;-71
2021/12/18 08:45:01;;;;;;;6.78;1.90;;;8.20;99.90;;;;;;5093176;28;20052;-71
2021/12/18 08:47:26;;;;;;;5.20;1.90;;;8.20;99.90;;;;;;5094018;28;20031;-70
2021/12/18 08:49:52;;;;;;;8.48;2.10;;;8.30;99.90;;;;;;5094846;28;20399;-71
2021/12/18 08:52:18;;;;;;;9.57;1.73;;;8.30;99.90;;;;;;5093926;28;20032;-70
2021/12/18 08:54:44;;;;;;;10.95;1.85;;;8.30;99.90;;;;;;5091232;28;20112;-70
2021/12/18 08:57:11;;;;;;;10.75;2.15;;;8.40;99.90;;;;;;5088821;28;20036;-71
2021/12/18 08:59:40;;;;;;;6.38;1.60;;;8.40;99.90;;;;;;5089020;28;20027;-71
2021/12/18 09:02:07;;;;;;;10.70;2.78;;;8.40;99.90;;;;;;5111888;28;20067;-71
2021/12/18 09:04:33;;;;;;;8.95;2.20;;;8.40;99.90;;;;;;5108658;28;20553;-71
2021/12/18 09:06:58;;;;;;;10.43;2.45;;;8.50;99.90;;;;;;5111680;28;20063;-71
2021/12/18 09:09:24;;;;;;;6.35;2.38;;;8.60;99.90;;;;;;5090819;28;20115;-71
2021/12/18 09:11:49;;;;;;;8.23;2.92;;;8.60;99.90;;;;;;5094595;28;20055;-71
2021/12/18 09:14:15;;;;;;;6.88;2.25;;;8.70;99.90;;;;;;5110728;28;20460;-71
2021/12/18 09:16:41;;;;;;;9.68;2.90;;;8.70;99.90;;;;;;5108233;28;20039;-71
2021/12/18 09:19:06;;;;;;;7.15;1.92;;;8.80;99.90;;;;;;5110567;28;20028;-71
2021/12/18 09:21:32;;;;;;;6.65;1.67;;;8.80;99.90;;;;;;5111491;28;20480;-71
2021/12/18 09:23:58;;;;;;;7.43;1.80;;;8.80;99.90;;;;;;5108342;28;20051;-72
2021/12/18 09:26:23;;;;;;;8.65;1.90;;;8.80;99.90;;;;;;5094114;28;20047;-72
2021/12/18 09:28:49;;;;;;;6.20;1.70;;;8.90;99.90;;;;;;5107991;28;20036;-71
2021/12/18 09:31:15;;;;;;;5.75;1.60;;;8.80;99.90;;;;;;5107749;28;20055;-71
2021/12/18 09:33:41;;;;;;;9.23;1.75;;;8.80;99.90;;;;;;5113438;28;20035;-71
2021/12/18 09:36:06;;;;;;;6.70;1.50;;;8.90;99.90;;;;;;5108905;28;20075;-71
2021/12/18 09:38:32;;;;;;;9.93;1.95;;;8.90;99.90;;;;;;5144388;27;20044;-71
2021/12/18 09:40:59;;;;;;;4.18;1.63;;;9.00;99.90;;;;;;5112803;28;20031;-71
2021/12/18 09:43:26;;;;;;;7.40;1.63;;;9.10;99.90;;;;;;5112003;28;20055;-71
2021/12/18 09:45:52;;;;;;;7.10;1.80;;;9.00;99.90;;;;;;5109917;28;20036;-71
2021/12/18 09:48:19;;;;;;;7.60;1.65;;;9.10;99.90;;;;;;5113001;28;20503;-71
2021/12/18 09:50:48;;;;;;;11.15;1.70;;;9.10;99.90;;;;;;5096218;28;20036;-71
2021/12/18 09:53:14;;;;;;;5.00;1.67;;;9.10;99.90;;;;;;5111110;28;20406;-71
2021/12/18 09:55:40;;;;;;;6.55;1.45;;;9.00;99.90;;;;;;5111657;28;20122;-71
2021/12/18 09:58:05;;;;;;;7.03;1.70;;;9.10;99.90;;;;;;5096093;28;20031;-71
2021/12/18 10:00:31;;;;;;;10.43;1.33;;;9.10;99.90;;;;;;5142511;27;20039;-71
2021/12/18 10:02:57;;;;;;;8.50;1.75;;;9.20;99.90;;;;;;5094325;28;20036;-71
2021/12/18 10:05:33;;;;;;;6.03;1.38;;;9.20;99.90;;;;;;5108935;28;20057;-71
2021/12/18 10:08:16;;;;;;;6.15;1.58;;;9.20;99.90;;;;;;5115652;27;20122;-71
2021/12/18 10:11:05;;;;;;;8.30;1.63;;;9.20;99.90;;;;;;5094015;28;20036;-71
2021/12/18 10:13:50;;;;;;;7.80;1.85;;;9.20;99.90;;;;;;5109434;28;20040;-71
2021/12/18 10:16:16;;;;;;;7.65;1.83;;;9.10;99.90;;;;;;5088273;28;20040;-71
2021/12/18 10:18:41;;;;;;;7.55;1.80;;;9.10;99.90;;;;;;5110573;28;20503;-71
2021/12/18 10:21:15;;;;;;;9.52;2.00;;;9.10;99.90;;;;;;5094988;28;20108;-71
2021/12/18 10:23:46;;;;;;;12.25;2.15;;;9.10;99.90;;;;;;5111612;28;20047;-71
2021/12/18 10:26:37;;;;;;;8.43;2.50;;;9.10;99.90;;;;;;5097211;28;20532;-71
2021/12/18 10:29:06;;;;;;;5.65;2.20;;;9.00;99.90;;;;;;5112499;28;20023;-71
2021/12/18 10:31:43;;;;;;;8.98;2.33;;;9.10;99.90;;;;;;5094847;28;20039;-71
2021/12/18 10:34:18;;;;;;;9.10;2.55;;;9.20;99.90;;;;;;5114256;28;20377;-71
2021/12/18 10:37:12;;;;;;;6.25;2.70;;;9.20;99.90;;;;;;5096178;28;20043;-71
2021/12/18 10:39:59;;;;;;;8.80;2.70;;;9.10;99.90;;;;;;5097074;28;20096;-71
2021/12/18 10:42:24;;;;;;;9.30;2.88;;;9.10;99.90;;;;;;5109468;28;20028;-71
2021/12/18 10:44:59;;;;;;;9.20;3.30;;;9.10;99.90;;;;;;5108646;28;20036;-71
2021/12/18 10:47:26;;;;;;;9.00;4.03;;;9.10;99.90;;;;;;5125378;27;20114;-71
2021/12/18 10:49:52;;;;;;;8.80;3.80;;;9.10;99.90;;;;;;5095203;28;20032;-71
2021/12/18 10:52:37;;;;;;;8.13;3.08;;;9.10;99.90;;;;;;5113664;28;20549;-71
2021/12/18 10:55:06;;;;;;;8.35;3.10;;;9.10;99.90;;;;;;5093807;28;20031;-71
2021/12/18 10:57:32;;;;;;;7.88;2.60;;;9.20;99.90;;;;;;5113471;28;20041;-71
2021/12/18 10:59:58;;;;;;;8.45;3.22;;;9.20;99.90;;;;;;5111113;28;20043;-71
2021/12/18 11:02:27;;;;;;;9.60;2.92;;;9.20;99.90;;;;;;5090882;28;20035;-71
2021/12/18 11:04:53;;;;;;;9.45;2.97;;;9.20;99.90;;;;;;5096274;28;20031;-71
2021/12/18 11:07:22;;;;;;;8.57;2.70;;;9.20;99.90;;;;;;5094708;28;20503;-71
2021/12/18 11:15:17;;;;;;;6.63;2.20;;;9.20;99.90;;;;;;5111852;28;20044;-71
2021/12/18 11:17:44;;;;;;;6.05;1.90;;;9.20;99.90;;;;;;5093032;28;20527;-71
2021/12/18 11:20:10;;;;;;;5.68;1.80;;;9.20;99.90;;;;;;5093960;28;20089;-71
2021/12/18 11:22:35;;;;;;;7.55;2.13;;;9.20;99.90;;;;;;5092423;28;20426;-71
2021/12/18 11:25:05;;;;;;;6.82;2.20;;;9.20;99.90;;;;;;5095283;28;20543;-71
2021/12/18 11:27:33;;;;;;;10.10;3.30;;;9.20;99.90;;;;;;5095375;28;20479;-71
2021/12/18 11:30:11;;;;;;;9.60;3.20;;;9.20;99.90;;;;;;5108828;28;20047;-71
2021/12/18 11:32:43;;;;;;;8.18;2.97;;;9.20;99.90;;;;;;5096589;28;20114;-71
2021/12/18 11:35:16;;;;;;;7.13;2.80;;;9.10;99.90;;;;;;5112905;28;20035;-71
2021/12/18 11:37:47;;;;;;;7.65;2.80;;;9.10;99.90;;;;;;5095850;28;20047;-71
2021/12/18 11:40:26;;;;;;;9.18;3.00;;;9.10;99.90;;;;;;5094306;28;21377;-70
2021/12/18 11:42:52;;;;;;;8.60;2.92;;;9.10;99.90;;;;;;5113135;28;20040;-71
2021/12/18 11:45:18;;;;;;;7.68;2.25;;;9.10;99.90;;;;;;5112533;28;20395;-71
2021/12/18 11:47:45;;;;;;;8.93;2.20;;;9.10;99.90;;;;;;5095878;28;20145;-71
2021/12/18 11:50:19;;;;;;;6.18;1.95;;;9.10;99.90;;;;;;5112609;28;20059;-71
2021/12/18 11:52:53;;;;;;;7.13;2.67;;;9.10;99.90;;;;;;5112841;28;20043;-71
2021/12/18 11:55:20;;;;;;;8.48;2.38;;;9.10;99.90;;;;;;5112582;28;20047;-71
2021/12/18 11:57:52;;;;;;;8.35;2.28;;;9.10;99.90;;;;;;5112360;28;20085;-71
2021/12/18 12:00:18;;;;;;;6.25;1.70;;;9.10;99.90;;;;;;5095651;28;20048;-71
2021/12/18 12:02:51;;;;;;;8.57;2.53;;;9.10;99.90;;;;;;5095548;28;20388;-71
2021/12/18 12:05:18;;;;;;;7.95;2.22;;;9.10;99.90;;;;;;5111999;28;20505;-71
2021/12/18 12:07:45;;;;;;;6.45;2.20;;;9.10;99.90;;;;;;5095223;28;20035;-71
2021/12/18 12:12:49;;;;;;;7.18;2.33;;;9.20;99.90;;;;;;5109201;28;20514;-71
2021/12/18 12:15:16;;;;;;;8.18;2.45;;;9.30;99.90;;;;;;5110516;28;20080;-71
2021/12/18 12:18:06;;;;;;;8.60;2.22;;;9.30;99.90;;;;;;5093764;28;20045;-71
2021/12/18 12:20:43;;;;;;;14.02;3.00;;;9.40;99.90;;;;;;5093768;28;20039;-71
2021/12/18 12:23:10;;;;;;;8.32;2.78;;;9.40;99.90;;;;;;5109510;28;20044;-71
2021/12/18 12:25:44;;;;;;;7.07;2.53;;;9.50;99.90;;;;;;5094594;28;20168;-71
2021/12/18 12:28:22;;;;;;;6.03;2.65;;;9.50;99.90;;;;;;5142647;27;20036;-71
2021/12/18 12:30:55;;;;;;;9.63;2.60;;;9.40;99.90;;;;;;5088547;28;20051;-71
2021/12/18 12:33:27;;;;;;;7.13;2.13;;;9.50;99.90;;;;;;5092173;28;20448;-71
2021/12/18 12:36:05;;;;;;;8.07;1.95;;;9.50;99.90;;;;;;5105587;28;20082;-71
2021/12/18 12:38:43;;;;;;;10.63;2.47;;;9.50;99.90;;;;;;5111820;28;20058;-71
2021/12/18 12:41:36;;;;;;;6.22;1.80;;;9.50;99.90;;;;;;5125509;27;20043;-71
2021/12/18 12:44:31;;;;;;;9.63;2.20;;;9.60;99.90;;;;;;5110445;28;20391;-71
2021/12/18 12:47:15;;;;;;;8.18;1.60;;;9.60;99.90;;;;;;5093554;28;20046;-71
2021/12/18 12:49:42;;;;;;;7.07;1.85;;;9.60;99.90;;;;;;5094896;28;20080;-71
2021/12/18 12:52:13;;;;;;;9.10;1.88;;;9.60;99.90;;;;;;5110369;28;20062;-71
2021/12/18 12:54:58;;;;;;;6.47;2.03;;;9.60;99.90;;;;;;5111550;28;20046;-71
2021/12/18 12:57:24;;;;;;;8.35;1.88;;;9.60;99.90;;;;;;5140658;27;20035;-71
2021/12/18 13:00:16;;;;;;;5.78;1.80;;;9.50;99.90;;;;;;5093397;28;20139;-71
2021/12/18 13:02:54;;;;;;;;;;;9.50;99.90;;;;;;5094627;28;20039;-72
2021/12/18 13:05:21;;;;;;;10.13;2.40;;;9.60;99.90;;;;;;5110495;28;19923;-71
2021/12/18 13:07:49;;;;;;;7.13;2.10;;;9.60;99.90;;;;;;5110631;28;20092;-71
2021/12/18 13:10:19;;;;;;;6.78;2.30;;;9.60;99.90;;;;;;5090369;28;20126;-71
2021/12/18 13:13:02;;;;;;;9.63;2.10;;;9.60;99.90;;;;;;5111465;28;20108;-71
2021/12/18 13:15:44;;;;;;;10.35;2.92;;;9.60;99.90;;;;;;5109602;28;20412;-71
2021/12/18 13:18:10;;;;;;;8.10;2.30;;;9.60;99.90;;;;;;5093064;28;20043;-71
2021/12/18 13:20:55;;;;;;;11.05;3.03;;;9.70;99.90;;;;;;5110189;28;20766;-71
2021/12/18 13:23:43;;;;;;;8.40;2.10;;;9.60;99.90;;;;;;5144329;27;20035;-71
2021/12/18 13:26:15;;;;;;;12.27;3.05;;;9.60;99.90;;;;;;5098455;28;20044;-71
2021/12/18 13:28:49;;;;;;;9.20;2.27;;;9.60;99.90;;;;;;5111331;28;20039;-71
2021/12/18 13:31:15;;;;;;;10.90;3.00;;;9.60;99.90;;;;;;5092688;28;20631;-71
2021/12/18 13:33:41;;;;;;;8.85;2.42;;;9.60;99.90;;;;;;5110655;28;20133;-75
2021/12/18 13:36:07;;;;;;;8.15;2.40;;;9.60;99.90;;;;;;5110754;28;20066;-74
2021/12/18 13:38:36;;;;;;;6.82;2.00;;;9.60;99.90;;;;;;5110282;28;20054;-75
2021/12/18 13:41:02;;;;;;;6.90;2.03;;;9.60;99.90;;;;;;5122119;28;20108;-75
2021/12/18 13:43:27;;;;;;;9.50;3.22;;;9.50;99.90;;;;;;5110891;28;20139;-75
2021/12/18 13:45:57;;;;;;;7.05;2.30;;;9.60;99.90;;;;;;5107305;28;20031;-75
2021/12/18 13:48:29;;;;;;;8.70;2.45;;;9.60;99.90;;;;;;5105943;28;20036;-75
2021/12/18 13:50:58;;;;;;;10.07;2.53;;;9.60;99.90;;;;;;5110472;28;20040;-75
2021/12/18 13:53:25;;;;;;;10.38;2.13;;;9.60;99.90;;;;;;5109902;28;20051;-74
2021/12/18 13:55:56;;;;;;;10.32;2.13;;;9.50;99.90;;;;;;5110215;28;20042;-78